Early, Iowa
Current Conditions -  °F | °C
As of 12:15 AM on Friday 19 Dec 2014 (Local Time) from KSLB Reporting Station
Overcast Overcast  
Wind Chill: 20°   Ceiling: 900
Heat Index: 28°   Visibility: 8mi
Dew Point: 27°   Wind: 8mph
Humidity: 93%   Direction: 170°S
Pressure: 30.22"   Gusts: NA
Location:  42.46°N, 95.15°W
Report Text: KSLB 190615Z AUTO 17007KT 8SM OVC009 M02/M03 A3022 RMK AO2
Loading
Personal Weather Stations






























Interactive Weather Map New forecast layout! Learn more

10-Day Weather Forecast

Advertisements
Track Severe Weather on mobile